sensor_id;sensor_type;location;lat;lon;timestamp;P1;durP1;ratioP1;P2;durP2;ratioP2
5945;SDS011;2998;48.206;16.394;2022-08-20T00:02:10;24.13;;;21.23;;
5945;SDS011;2998;48.206;16.394;2022-08-20T00:04:41;21.60;;;19.40;;
5945;SDS011;2998;48.206;16.394;2022-08-20T00:07:09;21.47;;;19.43;;
5945;SDS011;2998;48.206;16.394;2022-08-20T00:09:37;19.77;;;17.63;;
5945;SDS011;2998;48.206;16.394;2022-08-20T00:12:07;19.27;;;17.67;;
5945;SDS011;2998;48.206;16.394;2022-08-20T00:14:36;19.43;;;17.70;;
5945;SDS011;2998;48.206;16.394;2022-08-20T00:17:04;18.93;;;17.23;;
5945;SDS011;2998;48.206;16.394;2022-08-20T00:19:32;17.30;;;15.80;;
5945;SDS011;2998;48.206;16.394;2022-08-20T00:22:02;16.83;;;15.43;;
5945;SDS011;2998;48.206;16.394;2022-08-20T00:24:30;15.57;;;14.27;;
5945;SDS011;2998;48.206;16.394;2022-08-20T00:26:58;20.13;;;18.23;;
5945;SDS011;2998;48.206;16.394;2022-08-20T00:29:26;21.83;;;19.93;;
5945;SDS011;2998;48.206;16.394;2022-08-20T00:31:54;20.10;;;18.30;;
5945;SDS011;2998;48.206;16.394;2022-08-20T00:34:22;25.63;;;23.10;;
5945;SDS011;2998;48.206;16.394;2022-08-20T00:36:50;24.87;;;22.57;;
5945;SDS011;2998;48.206;16.394;2022-08-20T00:39:20;28.47;;;25.77;;
5945;SDS011;2998;48.206;16.394;2022-08-20T00:41:48;26.13;;;23.63;;
5945;SDS011;2998;48.206;16.394;2022-08-20T00:44:18;23.93;;;21.63;;
5945;SDS011;2998;48.206;16.394;2022-08-20T00:46:48;26.40;;;23.90;;
5945;SDS011;2998;48.206;16.394;2022-08-20T00:49:18;26.00;;;23.47;;
5945;SDS011;2998;48.206;16.394;2022-08-20T00:51:51;25.83;;;23.40;;
5945;SDS011;2998;48.206;16.394;2022-08-20T00:54:25;25.20;;;22.90;;
5945;SDS011;2998;48.206;16.394;2022-08-20T00:56:57;27.03;;;24.43;;
5945;SDS011;2998;48.206;16.394;2022-08-20T00:59:29;22.20;;;20.20;;
5945;SDS011;2998;48.206;16.394;2022-08-20T01:02:00;26.50;;;23.90;;
5945;SDS011;2998;48.206;16.394;2022-08-20T01:04:32;24.80;;;22.40;;
5945;SDS011;2998;48.206;16.394;2022-08-20T01:07:02;24.43;;;22.03;;
5945;SDS011;2998;48.206;16.394;2022-08-20T01:09:33;22.63;;;20.60;;
5945;SDS011;2998;48.206;16.394;2022-08-20T01:12:21;24.47;;;22.13;;
5945;SDS011;2998;48.206;16.394;2022-08-20T01:14:50;23.80;;;21.50;;
5945;SDS011;2998;48.206;16.394;2022-08-20T01:17:19;24.17;;;21.87;;
5945;SDS011;2998;48.206;16.394;2022-08-20T01:19:50;24.93;;;22.47;;
5945;SDS011;2998;48.206;16.394;2022-08-20T01:22:31;22.80;;;20.60;;
5945;SDS011;2998;48.206;16.394;2022-08-20T01:25:43;23.47;;;21.20;;
5945;SDS011;2998;48.206;16.394;2022-08-20T01:28:13;22.07;;;20.00;;
5945;SDS011;2998;48.206;16.394;2022-08-20T01:30:43;19.87;;;17.93;;
5945;SDS011;2998;48.206;16.394;2022-08-20T01:33:11;15.97;;;14.57;;
5945;SDS011;2998;48.206;16.394;2022-08-20T01:35:40;13.90;;;12.70;;
5945;SDS011;2998;48.206;16.394;2022-08-20T01:38:10;13.20;;;12.10;;
5945;SDS011;2998;48.206;16.394;2022-08-20T01:40:54;13.87;;;12.67;;
5945;SDS011;2998;48.206;16.394;2022-08-20T01:43:27;12.60;;;11.50;;
5945;SDS011;2998;48.206;16.394;2022-08-20T01:46:00;9.97;;;9.07;;
5945;SDS011;2998;48.206;16.394;2022-08-20T01:48:30;8.97;;;8.27;;
5945;SDS011;2998;48.206;16.394;2022-08-20T01:51:03;8.60;;;8.00;;
5945;SDS011;2998;48.206;16.394;2022-08-20T01:53:34;7.93;;;7.17;;
5945;SDS011;2998;48.206;16.394;2022-08-20T01:56:08;7.60;;;7.10;;
5945;SDS011;2998;48.206;16.394;2022-08-20T01:58:38;6.47;;;6.07;;
5945;SDS011;2998;48.206;16.394;2022-08-20T02:01:16;6.73;;;6.23;;
5945;SDS011;2998;48.206;16.394;2022-08-20T02:03:46;7.10;;;6.70;;
5945;SDS011;2998;48.206;16.394;2022-08-20T02:06:14;7.53;;;7.03;;
5945;SDS011;2998;48.206;16.394;2022-08-20T02:08:42;7.13;;;6.67;;
5945;SDS011;2998;48.206;16.394;2022-08-20T02:11:12;5.60;;;5.30;;
5945;SDS011;2998;48.206;16.394;2022-08-20T02:13:40;4.90;;;4.70;;
5945;SDS011;2998;48.206;16.394;2022-08-20T02:16:08;5.17;;;4.83;;
5945;SDS011;2998;48.206;16.394;2022-08-20T02:18:36;5.50;;;5.27;;
5945;SDS011;2998;48.206;16.394;2022-08-20T02:21:05;5.33;;;4.97;;
5945;SDS011;2998;48.206;16.394;2022-08-20T02:23:33;4.97;;;4.77;;
5945;SDS011;2998;48.206;16.394;2022-08-20T02:26:01;5.57;;;5.17;;
5945;SDS011;2998;48.206;16.394;2022-08-20T02:28:30;4.90;;;4.70;;
5945;SDS011;2998;48.206;16.394;2022-08-20T02:30:58;5.60;;;5.30;;
5945;SDS011;2998;48.206;16.394;2022-08-20T02:33:28;5.50;;;5.17;;
5945;SDS011;2998;48.206;16.394;2022-08-20T02:35:56;2.83;;;2.73;;
5945;SDS011;2998;48.206;16.394;2022-08-20T02:38:24;3.10;;;3.00;;
5945;SDS011;2998;48.206;16.394;2022-08-20T02:40:52;2.90;;;2.70;;
5945;SDS011;2998;48.206;16.394;2022-08-20T02:43:20;2.13;;;2.03;;
5945;SDS011;2998;48.206;16.394;2022-08-20T02:45:50;2.27;;;2.07;;
5945;SDS011;2998;48.206;16.394;2022-08-20T02:48:19;2.13;;;2.03;;
5945;SDS011;2998;48.206;16.394;2022-08-20T02:50:49;2.40;;;2.30;;
5945;SDS011;2998;48.206;16.394;2022-08-20T02:53:18;2.03;;;1.87;;
5945;SDS011;2998;48.206;16.394;2022-08-20T02:55:47;2.57;;;2.37;;
5945;SDS011;2998;48.206;16.394;2022-08-20T02:58:16;2.47;;;2.20;;
5945;SDS011;2998;48.206;16.394;2022-08-20T03:00:44;2.07;;;1.87;;
5945;SDS011;2998;48.206;16.394;2022-08-20T03:03:14;1.83;;;1.73;;
5945;SDS011;2998;48.206;16.394;2022-08-20T03:05:45;2.17;;;2.07;;
5945;SDS011;2998;48.206;16.394;2022-08-20T03:08:14;1.83;;;1.73;;
5945;SDS011;2998;48.206;16.394;2022-08-20T03:10:43;2.20;;;2.10;;
5945;SDS011;2998;48.206;16.394;2022-08-20T03:13:13;1.90;;;1.80;;
5945;SDS011;2998;48.206;16.394;2022-08-20T03:15:44;2.53;;;2.30;;
5945;SDS011;2998;48.206;16.394;2022-08-20T03:18:20;2.13;;;2.03;;
5945;SDS011;2998;48.206;16.394;2022-08-20T03:20:49;2.40;;;2.30;;
5945;SDS011;2998;48.206;16.394;2022-08-20T03:23:18;3.00;;;2.90;;
5945;SDS011;2998;48.206;16.394;2022-08-20T03:25:47;2.67;;;2.47;;
5945;SDS011;2998;48.206;16.394;2022-08-20T03:28:15;2.43;;;2.33;;
5945;SDS011;2998;48.206;16.394;2022-08-20T03:30:44;2.53;;;2.43;;
5945;SDS011;2998;48.206;16.394;2022-08-20T03:33:12;2.37;;;2.27;;
5945;SDS011;2998;48.206;16.394;2022-08-20T03:35:42;2.83;;;2.73;;
5945;SDS011;2998;48.206;16.394;2022-08-20T03:38:11;3.20;;;3.00;;
5945;SDS011;2998;48.206;16.394;2022-08-20T03:40:40;3.10;;;3.00;;
5945;SDS011;2998;48.206;16.394;2022-08-20T03:43:09;3.00;;;2.90;;
5945;SDS011;2998;48.206;16.394;2022-08-20T03:45:38;3.40;;;3.30;;
5945;SDS011;2998;48.206;16.394;2022-08-20T03:48:09;3.00;;;2.90;;
5945;SDS011;2998;48.206;16.394;2022-08-20T03:50:38;3.20;;;3.00;;
5945;SDS011;2998;48.206;16.394;2022-08-20T03:53:09;3.60;;;3.50;;
5945;SDS011;2998;48.206;16.394;2022-08-20T03:55:40;3.70;;;3.60;;
5945;SDS011;2998;48.206;16.394;2022-08-20T03:58:19;3.53;;;3.43;;
5945;SDS011;2998;48.206;16.394;2022-08-20T04:00:57;3.57;;;3.47;;
5945;SDS011;2998;48.206;16.394;2022-08-20T04:03:25;3.63;;;3.53;;
5945;SDS011;2998;48.206;16.394;2022-08-20T04:05:53;3.20;;;3.10;;
5945;SDS011;2998;48.206;16.394;2022-08-20T04:08:24;3.30;;;3.00;;
5945;SDS011;2998;48.206;16.394;2022-08-20T04:10:53;3.07;;;2.97;;
5945;SDS011;2998;48.206;16.394;2022-08-20T04:13:23;3.37;;;3.27;;
5945;SDS011;2998;48.206;16.394;2022-08-20T04:15:52;2.90;;;2.70;;
5945;SDS011;2998;48.206;16.394;2022-08-20T04:18:22;3.13;;;3.03;;
5945;SDS011;2998;48.206;16.394;2022-08-20T04:20:51;4.10;;;3.80;;
5945;SDS011;2998;48.206;16.394;2022-08-20T04:23:20;3.57;;;3.47;;
5945;SDS011;2998;48.206;16.394;2022-08-20T04:25:50;2.73;;;2.63;;
5945;SDS011;2998;48.206;16.394;2022-08-20T04:28:22;3.50;;;3.30;;
5945;SDS011;2998;48.206;16.394;2022-08-20T04:30:52;3.10;;;3.00;;
5945;SDS011;2998;48.206;16.394;2022-08-20T04:33:21;3.53;;;2.80;;
5945;SDS011;2998;48.206;16.394;2022-08-20T04:36:00;2.57;;;2.47;;
5945;SDS011;2998;48.206;16.394;2022-08-20T04:38:31;2.20;;;2.00;;
5945;SDS011;2998;48.206;16.394;2022-08-20T04:41:18;2.27;;;2.17;;
5945;SDS011;2998;48.206;16.394;2022-08-20T04:43:49;2.80;;;2.40;;
5945;SDS011;2998;48.206;16.394;2022-08-20T04:46:18;2.13;;;2.03;;
5945;SDS011;2998;48.206;16.394;2022-08-20T04:48:47;3.20;;;2.37;;
5945;SDS011;2998;48.206;16.394;2022-08-20T04:51:16;2.53;;;2.43;;
5945;SDS011;2998;48.206;16.394;2022-08-20T04:53:48;2.50;;;2.40;;
5945;SDS011;2998;48.206;16.394;2022-08-20T04:56:20;1.40;;;1.40;;
5945;SDS011;2998;48.206;16.394;2022-08-20T04:58:50;2.20;;;1.20;;
5945;SDS011;2998;48.206;16.394;2022-08-20T05:01:18;2.13;;;1.37;;
5945;SDS011;2998;48.206;16.394;2022-08-20T05:03:47;1.10;;;1.10;;
5945;SDS011;2998;48.206;16.394;2022-08-20T05:06:15;1.43;;;1.33;;
5945;SDS011;2998;48.206;16.394;2022-08-20T05:08:44;1.20;;;1.10;;
5945;SDS011;2998;48.206;16.394;2022-08-20T05:11:12;0.83;;;0.83;;
5945;SDS011;2998;48.206;16.394;2022-08-20T05:14:02;1.00;;;1.00;;
5945;SDS011;2998;48.206;16.394;2022-08-20T05:16:33;1.40;;;1.30;;
5945;SDS011;2998;48.206;16.394;2022-08-20T05:19:04;1.20;;;1.13;;
5945;SDS011;2998;48.206;16.394;2022-08-20T05:21:34;1.40;;;1.30;;
5945;SDS011;2998;48.206;16.394;2022-08-20T05:24:02;1.30;;;1.30;;
5945;SDS011;2998;48.206;16.394;2022-08-20T05:26:31;1.70;;;1.60;;
5945;SDS011;2998;48.206;16.394;2022-08-20T05:28:59;1.20;;;1.20;;
5945;SDS011;2998;48.206;16.394;2022-08-20T05:31:32;1.50;;;1.40;;
5945;SDS011;2998;48.206;16.394;2022-08-20T05:34:00;3.33;;;1.40;;
5945;SDS011;2998;48.206;16.394;2022-08-20T05:36:29;1.57;;;1.47;;
5945;SDS011;2998;48.206;16.394;2022-08-20T05:38:57;1.73;;;1.63;;
5945;SDS011;2998;48.206;16.394;2022-08-20T05:41:25;1.97;;;1.87;;
5945;SDS011;2998;48.206;16.394;2022-08-20T05:43:56;1.90;;;1.80;;
5945;SDS011;2998;48.206;16.394;2022-08-20T05:46:26;1.63;;;1.53;;
5945;SDS011;2998;48.206;16.394;2022-08-20T05:48:55;1.90;;;1.80;;
5945;SDS011;2998;48.206;16.394;2022-08-20T05:51:25;2.00;;;1.90;;
5945;SDS011;2998;48.206;16.394;2022-08-20T05:53:53;3.77;;;3.57;;
5945;SDS011;2998;48.206;16.394;2022-08-20T05:56:26;5.00;;;4.80;;
5945;SDS011;2998;48.206;16.394;2022-08-20T05:58:56;1.70;;;1.60;;
5945;SDS011;2998;48.206;16.394;2022-08-20T06:01:27;1.87;;;1.77;;
5945;SDS011;2998;48.206;16.394;2022-08-20T06:03:56;1.33;;;1.23;;
5945;SDS011;2998;48.206;16.394;2022-08-20T06:06:42;2.13;;;1.50;;
5945;SDS011;2998;48.206;16.394;2022-08-20T06:09:13;1.63;;;1.53;;
5945;SDS011;2998;48.206;16.394;2022-08-20T06:11:58;1.60;;;1.50;;
5945;SDS011;2998;48.206;16.394;2022-08-20T06:14:27;1.00;;;1.00;;
5945;SDS011;2998;48.206;16.394;2022-08-20T06:17:00;1.47;;;1.37;;
5945;SDS011;2998;48.206;16.394;2022-08-20T06:19:31;1.20;;;1.10;;
5945;SDS011;2998;48.206;16.394;2022-08-20T06:22:00;1.57;;;1.40;;
5945;SDS011;2998;48.206;16.394;2022-08-20T06:24:43;1.20;;;1.20;;
5945;SDS011;2998;48.206;16.394;2022-08-20T06:27:12;0.93;;;0.93;;
5945;SDS011;2998;48.206;16.394;2022-08-20T06:29:41;1.10;;;1.10;;
5945;SDS011;2998;48.206;16.394;2022-08-20T06:32:09;1.17;;;1.07;;
5945;SDS011;2998;48.206;16.394;2022-08-20T06:34:39;1.03;;;1.03;;
5945;SDS011;2998;48.206;16.394;2022-08-20T06:37:18;0.93;;;0.93;;
5945;SDS011;2998;48.206;16.394;2022-08-20T06:39:53;1.00;;;0.70;;
5945;SDS011;2998;48.206;16.394;2022-08-20T06:42:21;0.80;;;0.80;;
5945;SDS011;2998;48.206;16.394;2022-08-20T06:44:49;0.70;;;0.70;;
5945;SDS011;2998;48.206;16.394;2022-08-20T06:47:17;1.20;;;1.20;;
5945;SDS011;2998;48.206;16.394;2022-08-20T06:49:48;1.70;;;1.60;;
5945;SDS011;2998;48.206;16.394;2022-08-20T06:52:16;1.60;;;1.50;;
5945;SDS011;2998;48.206;16.394;2022-08-20T06:54:55;1.73;;;1.57;;
5945;SDS011;2998;48.206;16.394;2022-08-20T06:57:23;2.00;;;1.80;;
5945;SDS011;2998;48.206;16.394;2022-08-20T06:59:53;1.00;;;1.00;;
5945;SDS011;2998;48.206;16.394;2022-08-20T07:02:21;1.40;;;1.30;;
5945;SDS011;2998;48.206;16.394;2022-08-20T07:04:57;1.33;;;1.20;;
5945;SDS011;2998;48.206;16.394;2022-08-20T07:07:25;1.20;;;1.20;;
5945;SDS011;2998;48.206;16.394;2022-08-20T07:09:57;1.60;;;1.50;;
5945;SDS011;2998;48.206;16.394;2022-08-20T07:12:26;4.30;;;1.40;;
5945;SDS011;2998;48.206;16.394;2022-08-20T07:14:54;1.00;;;1.00;;
5945;SDS011;2998;48.206;16.394;2022-08-20T07:17:22;1.40;;;1.30;;
5945;SDS011;2998;48.206;16.394;2022-08-20T07:19:50;1.30;;;1.20;;
5945;SDS011;2998;48.206;16.394;2022-08-20T07:22:20;0.80;;;0.80;;
5945;SDS011;2998;48.206;16.394;2022-08-20T07:24:48;0.70;;;0.70;;
5945;SDS011;2998;48.206;16.394;2022-08-20T07:27:18;2.07;;;1.43;;
5945;SDS011;2998;48.206;16.394;2022-08-20T07:29:47;1.00;;;0.93;;
5945;SDS011;2998;48.206;16.394;2022-08-20T07:32:38;4.20;;;3.97;;
5945;SDS011;2998;48.206;16.394;2022-08-20T07:35:13;2.70;;;1.27;;
5945;SDS011;2998;48.206;16.394;2022-08-20T07:37:45;0.80;;;0.80;;
5945;SDS011;2998;48.206;16.394;2022-08-20T07:40:16;0.90;;;0.70;;
5945;SDS011;2998;48.206;16.394;2022-08-20T07:42:51;1.63;;;0.97;;
5945;SDS011;2998;48.206;16.394;2022-08-20T07:45:20;1.93;;;1.83;;
5945;SDS011;2998;48.206;16.394;2022-08-20T07:47:49;1.33;;;1.23;;
5945;SDS011;2998;48.206;16.394;2022-08-20T07:50:19;1.40;;;1.30;;
5945;SDS011;2998;48.206;16.394;2022-08-20T07:52:51;1.30;;;1.20;;
5945;SDS011;2998;48.206;16.394;2022-08-20T07:55:19;1.17;;;1.13;;
5945;SDS011;2998;48.206;16.394;2022-08-20T07:57:48;1.43;;;1.33;;
5945;SDS011;2998;48.206;16.394;2022-08-20T08:00:17;2.10;;;2.00;;
5945;SDS011;2998;48.206;16.394;2022-08-20T08:02:46;1.27;;;1.17;;
5945;SDS011;2998;48.206;16.394;2022-08-20T08:05:14;1.60;;;1.50;;
5945;SDS011;2998;48.206;16.394;2022-08-20T08:07:45;1.07;;;1.07;;
5945;SDS011;2998;48.206;16.394;2022-08-20T08:10:15;1.50;;;1.43;;
5945;SDS011;2998;48.206;16.394;2022-08-20T08:12:47;1.80;;;1.70;;
5945;SDS011;2998;48.206;16.394;2022-08-20T08:15:17;2.20;;;2.10;;
5945;SDS011;2998;48.206;16.394;2022-08-20T08:17:48;2.30;;;2.10;;
5945;SDS011;2998;48.206;16.394;2022-08-20T08:20:18;2.33;;;2.23;;
5945;SDS011;2998;48.206;16.394;2022-08-20T08:22:47;2.40;;;2.30;;
5945;SDS011;2998;48.206;16.394;2022-08-20T08:25:17;2.50;;;2.30;;
5945;SDS011;2998;48.206;16.394;2022-08-20T08:27:45;3.10;;;3.00;;
5945;SDS011;2998;48.206;16.394;2022-08-20T08:30:15;3.27;;;3.17;;
5945;SDS011;2998;48.206;16.394;2022-08-20T08:32:43;2.60;;;2.40;;
5945;SDS011;2998;48.206;16.394;2022-08-20T08:35:29;3.90;;;3.73;;
5945;SDS011;2998;48.206;16.394;2022-08-20T08:37:57;4.37;;;4.17;;
5945;SDS011;2998;48.206;16.394;2022-08-20T08:40:29;4.27;;;4.07;;
5945;SDS011;2998;48.206;16.394;2022-08-20T08:42:58;5.10;;;4.40;;
5945;SDS011;2998;48.206;16.394;2022-08-20T08:45:30;4.30;;;4.00;;
5945;SDS011;2998;48.206;16.394;2022-08-20T08:48:02;5.23;;;4.93;;
5945;SDS011;2998;48.206;16.394;2022-08-20T08:50:31;7.17;;;4.67;;
5945;SDS011;2998;48.206;16.394;2022-08-20T08:53:21;4.60;;;4.40;;
5945;SDS011;2998;48.206;16.394;2022-08-20T08:55:53;3.10;;;2.90;;
5945;SDS011;2998;48.206;16.394;2022-08-20T08:58:21;3.80;;;3.60;;
5945;SDS011;2998;48.206;16.394;2022-08-20T09:00:49;4.07;;;3.97;;
5945;SDS011;2998;48.206;16.394;2022-08-20T09:03:28;3.87;;;3.57;;
5945;SDS011;2998;48.206;16.394;2022-08-20T09:05:59;3.77;;;3.67;;
5945;SDS011;2998;48.206;16.394;2022-08-20T09:08:29;3.70;;;3.40;;
5945;SDS011;2998;48.206;16.394;2022-08-20T09:11:04;4.13;;;3.93;;
5945;SDS011;2998;48.206;16.394;2022-08-20T09:13:33;6.23;;;3.97;;
5945;SDS011;2998;48.206;16.394;2022-08-20T09:16:02;3.20;;;3.10;;
5945;SDS011;2998;48.206;16.394;2022-08-20T09:18:30;3.80;;;3.50;;
5945;SDS011;2998;48.206;16.394;2022-08-20T09:20:58;4.10;;;3.90;;
5945;SDS011;2998;48.206;16.394;2022-08-20T09:23:26;3.83;;;3.67;;
5945;SDS011;2998;48.206;16.394;2022-08-20T09:25:54;3.40;;;3.23;;
5945;SDS011;2998;48.206;16.394;2022-08-20T09:28:23;3.80;;;3.70;;
5945;SDS011;2998;48.206;16.394;2022-08-20T09:30:57;3.90;;;3.70;;
5945;SDS011;2998;48.206;16.394;2022-08-20T09:33:26;4.00;;;3.80;;
5945;SDS011;2998;48.206;16.394;2022-08-20T09:35:54;5.50;;;5.20;;
5945;SDS011;2998;48.206;16.394;2022-08-20T09:38:22;5.83;;;5.33;;
5945;SDS011;2998;48.206;16.394;2022-08-20T09:40:50;4.93;;;4.63;;
5945;SDS011;2998;48.206;16.394;2022-08-20T09:43:18;6.90;;;6.43;;
5945;SDS011;2998;48.206;16.394;2022-08-20T09:45:47;7.07;;;6.57;;
5945;SDS011;2998;48.206;16.394;2022-08-20T09:48:15;6.90;;;6.40;;
5945;SDS011;2998;48.206;16.394;2022-08-20T09:50:45;7.83;;;7.13;;
5945;SDS011;2998;48.206;16.394;2022-08-20T09:53:14;8.33;;;7.50;;
5945;SDS011;2998;48.206;16.394;2022-08-20T09:55:43;8.27;;;7.57;;
5945;SDS011;2998;48.206;16.394;2022-08-20T09:58:13;7.83;;;7.23;;
5945;SDS011;2998;48.206;16.394;2022-08-20T10:00:45;7.50;;;6.90;;
5945;SDS011;2998;48.206;16.394;2022-08-20T10:03:14;7.97;;;7.27;;
5945;SDS011;2998;48.206;16.394;2022-08-20T10:05:43;7.80;;;7.10;;
5945;SDS011;2998;48.206;16.394;2022-08-20T10:08:11;7.87;;;7.17;;
5945;SDS011;2998;48.206;16.394;2022-08-20T10:10:39;7.03;;;6.40;;
5945;SDS011;2998;48.206;16.394;2022-08-20T10:13:07;8.97;;;7.27;;
5945;SDS011;2998;48.206;16.394;2022-08-20T10:15:40;7.00;;;6.37;;
5945;SDS011;2998;48.206;16.394;2022-08-20T10:18:09;7.53;;;6.93;;
5945;SDS011;2998;48.206;16.394;2022-08-20T10:20:39;6.53;;;6.13;;
5945;SDS011;2998;48.206;16.394;2022-08-20T10:23:07;7.23;;;6.63;;
5945;SDS011;2998;48.206;16.394;2022-08-20T10:25:36;7.10;;;6.60;;
5945;SDS011;2998;48.206;16.394;2022-08-20T10:28:04;6.50;;;5.93;;
5945;SDS011;2998;48.206;16.394;2022-08-20T10:30:33;6.33;;;5.83;;
5945;SDS011;2998;48.206;16.394;2022-08-20T10:33:01;5.23;;;4.83;;
5945;SDS011;2998;48.206;16.394;2022-08-20T10:35:29;5.07;;;4.63;;
5945;SDS011;2998;48.206;16.394;2022-08-20T10:37:58;4.33;;;3.93;;
5945;SDS011;2998;48.206;16.394;2022-08-20T10:40:26;4.17;;;3.97;;
5945;SDS011;2998;48.206;16.394;2022-08-20T10:42:54;4.33;;;4.10;;
5945;SDS011;2998;48.206;16.394;2022-08-20T10:45:22;4.90;;;4.60;;
5945;SDS011;2998;48.206;16.394;2022-08-20T10:47:51;5.13;;;4.83;;
5945;SDS011;2998;48.206;16.394;2022-08-20T10:50:19;4.73;;;4.43;;
5945;SDS011;2998;48.206;16.394;2022-08-20T10:52:47;5.47;;;5.07;;
5945;SDS011;2998;48.206;16.394;2022-08-20T10:55:17;5.30;;;5.00;;
5945;SDS011;2998;48.206;16.394;2022-08-20T10:57:46;5.67;;;5.20;;
5945;SDS011;2998;48.206;16.394;2022-08-20T11:00:15;5.47;;;5.07;;
5945;SDS011;2998;48.206;16.394;2022-08-20T11:02:44;4.40;;;4.20;;
5945;SDS011;2998;48.206;16.394;2022-08-20T11:05:13;5.07;;;4.60;;
5945;SDS011;2998;48.206;16.394;2022-08-20T11:07:42;4.20;;;4.00;;
5945;SDS011;2998;48.206;16.394;2022-08-20T11:10:23;4.70;;;4.50;;
5945;SDS011;2998;48.206;16.394;2022-08-20T11:12:53;4.00;;;3.80;;
5945;SDS011;2998;48.206;16.394;2022-08-20T11:15:21;3.70;;;3.57;;
5945;SDS011;2998;48.206;16.394;2022-08-20T11:17:49;5.47;;;5.07;;
5945;SDS011;2998;48.206;16.394;2022-08-20T11:20:18;4.13;;;3.93;;
5945;SDS011;2998;48.206;16.394;2022-08-20T11:22:47;3.53;;;3.33;;
5945;SDS011;2998;48.206;16.394;2022-08-20T11:25:15;4.10;;;3.80;;
5945;SDS011;2998;48.206;16.394;2022-08-20T11:27:46;4.37;;;4.17;;
5945;SDS011;2998;48.206;16.394;2022-08-20T11:30:17;3.90;;;3.70;;
5945;SDS011;2998;48.206;16.394;2022-08-20T11:32:46;4.87;;;4.60;;
5945;SDS011;2998;48.206;16.394;2022-08-20T11:35:14;4.17;;;3.87;;
5945;SDS011;2998;48.206;16.394;2022-08-20T11:38:04;3.70;;;3.60;;
5945;SDS011;2998;48.206;16.394;2022-08-20T11:40:32;3.53;;;3.43;;
5945;SDS011;2998;48.206;16.394;2022-08-20T11:43:01;3.90;;;3.70;;
5945;SDS011;2998;48.206;16.394;2022-08-20T11:45:41;4.60;;;4.30;;
5945;SDS011;2998;48.206;16.394;2022-08-20T11:48:09;4.80;;;4.47;;
5945;SDS011;2998;48.206;16.394;2022-08-20T11:50:37;4.33;;;4.13;;
5945;SDS011;2998;48.206;16.394;2022-08-20T11:53:05;6.23;;;4.83;;
5945;SDS011;2998;48.206;16.394;2022-08-20T11:55:33;5.03;;;4.77;;
5945;SDS011;2998;48.206;16.394;2022-08-20T11:58:03;5.33;;;5.03;;
5945;SDS011;2998;48.206;16.394;2022-08-20T12:00:31;6.50;;;6.07;;
5945;SDS011;2998;48.206;16.394;2022-08-20T12:02:59;5.50;;;5.10;;
5945;SDS011;2998;48.206;16.394;2022-08-20T12:05:30;5.83;;;5.53;;
5945;SDS011;2998;48.206;16.394;2022-08-20T12:07:59;5.77;;;5.47;;
5945;SDS011;2998;48.206;16.394;2022-08-20T12:10:28;6.07;;;5.70;;
5945;SDS011;2998;48.206;16.394;2022-08-20T12:12:56;5.63;;;5.23;;
5945;SDS011;2998;48.206;16.394;2022-08-20T12:15:26;5.70;;;5.40;;
5945;SDS011;2998;48.206;16.394;2022-08-20T12:17:54;5.37;;;5.07;;
5945;SDS011;2998;48.206;16.394;2022-08-20T12:20:22;5.97;;;5.57;;
5945;SDS011;2998;48.206;16.394;2022-08-20T12:22:50;5.30;;;4.80;;
5945;SDS011;2998;48.206;16.394;2022-08-20T12:25:19;4.63;;;4.43;;
5945;SDS011;2998;48.206;16.394;2022-08-20T12:27:47;5.23;;;5.00;;
5945;SDS011;2998;48.206;16.394;2022-08-20T12:30:17;5.13;;;4.83;;
5945;SDS011;2998;48.206;16.394;2022-08-20T12:32:48;5.83;;;5.43;;
5945;SDS011;2998;48.206;16.394;2022-08-20T12:35:17;6.10;;;5.80;;
5945;SDS011;2998;48.206;16.394;2022-08-20T12:37:45;5.40;;;5.00;;
5945;SDS011;2998;48.206;16.394;2022-08-20T12:40:14;7.20;;;6.80;;
5945;SDS011;2998;48.206;16.394;2022-08-20T12:42:57;6.80;;;6.20;;
5945;SDS011;2998;48.206;16.394;2022-08-20T12:45:25;6.83;;;6.47;;
5945;SDS011;2998;48.206;16.394;2022-08-20T12:47:59;7.13;;;6.73;;
5945;SDS011;2998;48.206;16.394;2022-08-20T12:50:28;7.93;;;7.43;;
5945;SDS011;2998;48.206;16.394;2022-08-20T12:52:57;9.03;;;8.13;;
5945;SDS011;2998;48.206;16.394;2022-08-20T12:55:25;8.20;;;7.60;;
5945;SDS011;2998;48.206;16.394;2022-08-20T12:57:54;8.10;;;7.60;;
5945;SDS011;2998;48.206;16.394;2022-08-20T13:00:25;9.03;;;8.43;;
5945;SDS011;2998;48.206;16.394;2022-08-20T13:02:57;8.30;;;7.80;;
5945;SDS011;2998;48.206;16.394;2022-08-20T13:05:26;7.50;;;7.10;;
5945;SDS011;2998;48.206;16.394;2022-08-20T13:07:54;8.53;;;8.00;;
5945;SDS011;2998;48.206;16.394;2022-08-20T13:10:23;8.77;;;8.17;;
5945;SDS011;2998;48.206;16.394;2022-08-20T13:12:52;8.70;;;8.10;;
5945;SDS011;2998;48.206;16.394;2022-08-20T13:15:21;8.10;;;7.60;;
5945;SDS011;2998;48.206;16.394;2022-08-20T13:17:50;9.40;;;8.70;;
5945;SDS011;2998;48.206;16.394;2022-08-20T13:20:20;9.77;;;9.17;;
5945;SDS011;2998;48.206;16.394;2022-08-20T13:22:56;9.27;;;8.73;;
5945;SDS011;2998;48.206;16.394;2022-08-20T13:25:24;10.17;;;9.47;;
5945;SDS011;2998;48.206;16.394;2022-08-20T13:27:54;9.57;;;8.97;;
5945;SDS011;2998;48.206;16.394;2022-08-20T13:30:23;11.33;;;10.50;;
5945;SDS011;2998;48.206;16.394;2022-08-20T13:32:52;9.90;;;9.30;;
5945;SDS011;2998;48.206;16.394;2022-08-20T13:35:22;9.27;;;8.60;;
5945;SDS011;2998;48.206;16.394;2022-08-20T13:37:50;10.10;;;9.33;;
5945;SDS011;2998;48.206;16.394;2022-08-20T13:40:18;9.70;;;9.10;;
5945;SDS011;2998;48.206;16.394;2022-08-20T13:42:46;8.27;;;7.77;;
5945;SDS011;2998;48.206;16.394;2022-08-20T13:45:14;8.20;;;7.70;;
5945;SDS011;2998;48.206;16.394;2022-08-20T13:47:42;8.37;;;7.87;;
5945;SDS011;2998;48.206;16.394;2022-08-20T13:50:11;8.43;;;7.83;;
5945;SDS011;2998;48.206;16.394;2022-08-20T13:52:43;7.33;;;6.73;;
5945;SDS011;2998;48.206;16.394;2022-08-20T13:55:12;5.33;;;5.03;;
5945;SDS011;2998;48.206;16.394;2022-08-20T13:57:42;6.67;;;6.37;;
5945;SDS011;2998;48.206;16.394;2022-08-20T14:00:11;5.63;;;5.33;;
5945;SDS011;2998;48.206;16.394;2022-08-20T14:02:42;5.40;;;5.13;;
5945;SDS011;2998;48.206;16.394;2022-08-20T14:05:11;6.10;;;5.80;;
5945;SDS011;2998;48.206;16.394;2022-08-20T14:07:44;4.90;;;4.70;;
5945;SDS011;2998;48.206;16.394;2022-08-20T14:10:14;4.23;;;4.10;;
5945;SDS011;2998;48.206;16.394;2022-08-20T14:12:44;4.90;;;4.70;;
5945;SDS011;2998;48.206;16.394;2022-08-20T14:15:13;4.20;;;4.00;;
5945;SDS011;2998;48.206;16.394;2022-08-20T14:17:46;4.10;;;3.90;;
5945;SDS011;2998;48.206;16.394;2022-08-20T14:20:17;3.67;;;3.57;;
5945;SDS011;2998;48.206;16.394;2022-08-20T14:22:48;3.50;;;3.40;;
5945;SDS011;2998;48.206;16.394;2022-08-20T14:25:17;3.60;;;3.40;;
5945;SDS011;2998;48.206;16.394;2022-08-20T14:27:46;3.07;;;2.97;;
5945;SDS011;2998;48.206;16.394;2022-08-20T14:30:15;3.13;;;3.03;;
5945;SDS011;2998;48.206;16.394;2022-08-20T14:32:44;2.93;;;2.83;;
5945;SDS011;2998;48.206;16.394;2022-08-20T14:35:12;3.60;;;3.50;;
5945;SDS011;2998;48.206;16.394;2022-08-20T14:37:41;2.67;;;2.53;;
5945;SDS011;2998;48.206;16.394;2022-08-20T14:40:13;3.40;;;3.30;;
5945;SDS011;2998;48.206;16.394;2022-08-20T14:42:42;2.83;;;2.73;;
5945;SDS011;2998;48.206;16.394;2022-08-20T14:45:16;2.90;;;2.80;;
5945;SDS011;2998;48.206;16.394;2022-08-20T14:47:45;3.53;;;3.33;;
5945;SDS011;2998;48.206;16.394;2022-08-20T14:50:20;2.90;;;2.80;;
5945;SDS011;2998;48.206;16.394;2022-08-20T14:52:50;2.20;;;2.00;;
5945;SDS011;2998;48.206;16.394;2022-08-20T14:55:20;2.57;;;2.47;;
5945;SDS011;2998;48.206;16.394;2022-08-20T14:57:50;2.53;;;2.43;;
5945;SDS011;2998;48.206;16.394;2022-08-20T15:00:21;2.50;;;2.40;;
5945;SDS011;2998;48.206;16.394;2022-08-20T15:02:51;2.60;;;2.50;;
5945;SDS011;2998;48.206;16.394;2022-08-20T15:05:20;6.87;;;2.07;;
5945;SDS011;2998;48.206;16.394;2022-08-20T15:07:49;1.83;;;1.73;;
5945;SDS011;2998;48.206;16.394;2022-08-20T15:10:22;1.50;;;1.40;;
5945;SDS011;2998;48.206;16.394;2022-08-20T15:12:52;2.23;;;1.47;;
5945;SDS011;2998;48.206;16.394;2022-08-20T15:15:20;1.70;;;1.60;;
5945;SDS011;2998;48.206;16.394;2022-08-20T15:17:50;1.40;;;1.23;;